ΕΜΥ, Εθνική Μετεωρολογική Υπηρεσία - Δελτία Καιρού, Προγνώσεις

ΑΕΡΟΝΑΥΤΙΛΙΑ

GREEK AIRPORTS CODES

LGML 260600Z 02021KT 9999 FEW018 20/10 Q1020 RMK FEW080 02021G28KT=

EUROPEAN AIRPORTS CODES

LFPO 260700Z 04004KT 010V080 CAVOK 09/04 Q1034 NOSIG=